createdAt,value
2023-03-02T00:00:16.738Z,91.80
2023-03-02T00:02:45.617Z,85.27
2023-03-02T00:05:14.945Z,81.20
2023-03-02T00:07:43.532Z,82.83
2023-03-02T00:10:14.085Z,84.23
2023-03-02T00:12:42.803Z,86.33
2023-03-02T00:15:12.147Z,81.07
2023-03-02T00:17:40.811Z,86.57
2023-03-02T00:20:11.920Z,90.20
2023-03-02T00:22:42.196Z,91.87
2023-03-02T00:25:13.852Z,90.83
2023-03-02T00:27:42.860Z,90.83
2023-03-02T00:30:13.026Z,90.70
2023-03-02T00:32:42.055Z,89.70
2023-03-02T00:35:11.401Z,94.63
2023-03-02T00:37:40.271Z,87.93
2023-03-02T00:40:10.870Z,88.77
2023-03-02T00:42:40.910Z,89.60
2023-03-02T00:45:10.574Z,89.73
2023-03-02T00:47:41.469Z,91.30
2023-03-02T00:50:11.816Z,85.63
2023-03-02T00:52:40.313Z,91.53
2023-03-02T00:55:09.601Z,86.10
2023-03-02T00:57:38.129Z,88.90
2023-03-02T01:00:09.685Z,87.23
2023-03-02T01:02:39.317Z,85.80
2023-03-02T01:05:08.506Z,87.67
2023-03-02T01:07:37.111Z,90.43
2023-03-02T01:10:06.248Z,84.37
2023-03-02T01:12:35.001Z,82.20
2023-03-02T01:15:04.125Z,86.27
2023-03-02T01:17:34.203Z,85.63
2023-03-02T01:20:03.039Z,88.67
2023-03-02T01:22:31.734Z,86.50
2023-03-02T01:25:00.327Z,92.67
2023-03-02T01:27:28.973Z,89.87
2023-03-02T01:29:57.503Z,89.27
2023-03-02T01:32:26.066Z,101.50
2023-03-02T01:34:56.141Z,100.60
2023-03-02T01:37:24.840Z,96.07
2023-03-02T01:39:53.550Z,99.27
2023-03-02T01:42:22.176Z,101.27
2023-03-02T01:44:52.594Z,98.97
2023-03-02T01:47:24.890Z,95.93
2023-03-02T01:49:58.782Z,91.40
2023-03-02T01:52:28.709Z,92.33
2023-03-02T01:55:00.860Z,99.40
2023-03-02T01:57:33.757Z,90.03
2023-03-02T02:00:08.751Z,85.53
2023-03-02T02:02:42.031Z,84.57
2023-03-02T02:05:15.063Z,83.17
2023-03-02T02:07:44.151Z,86.53
2023-03-02T02:10:13.434Z,76.60
2023-03-02T02:12:42.052Z,76.00
2023-03-02T02:15:11.315Z,78.13
2023-03-02T02:17:39.871Z,74.20
2023-03-02T02:20:22.348Z,72.30
2023-03-02T02:22:58.954Z,72.83
2023-03-02T02:25:45.448Z,67.57
2023-03-02T02:28:20.377Z,66.27
2023-03-02T02:30:52.641Z,66.40
2023-03-02T02:33:25.528Z,67.27
2023-03-02T02:35:58.533Z,60.53
2023-03-02T02:38:28.256Z,68.87
2023-03-02T02:40:59.653Z,64.47
2023-03-02T02:43:32.128Z,60.47
2023-03-02T02:46:02.034Z,64.13
2023-03-02T02:48:33.013Z,61.77
2023-03-02T02:51:03.482Z,89.68
2023-03-02T02:53:37.347Z,56.53
2023-03-02T02:56:10.135Z,55.33
2023-03-02T02:58:44.864Z,60.67
2023-03-02T03:01:16.028Z,61.43
2023-03-02T03:03:51.343Z,55.93
2023-03-02T03:06:23.484Z,57.20
2023-03-02T03:08:59.238Z,62.97
2023-03-02T03:11:29.951Z,62.27
2023-03-02T03:14:05.085Z,59.17
2023-03-02T03:16:35.768Z,54.80
2023-03-02T03:19:11.152Z,58.00
2023-03-02T03:21:39.660Z,57.93
2023-03-02T03:24:08.952Z,56.63
2023-03-02T03:26:37.457Z,56.90
2023-03-02T03:29:07.703Z,55.03
2023-03-02T03:31:36.680Z,59.43
2023-03-02T03:34:05.495Z,56.67
2023-03-02T03:36:35.145Z,57.60
2023-03-02T03:39:05.752Z,63.53
2023-03-02T03:41:35.151Z,57.50
2023-03-02T03:44:04.540Z,61.47
2023-03-02T03:46:35.244Z,62.73
2023-03-02T03:49:05.072Z,62.30
2023-03-02T03:51:35.651Z,59.77
2023-03-02T03:54:05.561Z,70.67
2023-03-02T03:56:36.544Z,67.70
2023-03-02T03:59:10.190Z,62.00
2023-03-02T04:01:41.833Z,58.03
2023-03-02T04:04:12.715Z,59.33
2023-03-02T04:06:42.215Z,56.03
2023-03-02T04:09:12.394Z,60.00
2023-03-02T04:11:42.659Z,59.97
2023-03-02T04:14:12.736Z,58.67
2023-03-02T04:16:43.631Z,59.77
2023-03-02T04:19:13.484Z,60.10
2023-03-02T04:21:45.163Z,60.00
2023-03-02T04:24:14.622Z,60.97
2023-03-02T04:26:44.382Z,66.03
2023-03-02T04:29:14.172Z,63.63
2023-03-02T04:31:44.264Z,65.73
2023-03-02T04:34:13.078Z,65.33
2023-03-02T04:36:42.685Z,73.67
2023-03-02T04:39:12.335Z,65.97
2023-03-02T04:41:40.935Z,63.63
2023-03-02T04:44:09.436Z,63.73
2023-03-02T04:46:38.039Z,64.87
2023-03-02T04:49:08.569Z,61.40
2023-03-02T04:51:39.646Z,62.63
2023-03-02T04:54:09.870Z,62.10
2023-03-02T04:56:38.598Z,55.60
2023-03-02T04:59:07.251Z,60.53
2023-03-02T05:01:36.171Z,60.53
2023-03-02T05:04:05.109Z,76.63
2023-03-02T05:06:35.207Z,55.33
2023-03-02T05:09:05.386Z,54.10
2023-03-02T05:11:33.986Z,58.63
2023-03-02T05:14:06.407Z,57.90
2023-03-02T05:16:37.324Z,56.17
2023-03-02T05:19:08.022Z,57.97
2023-03-02T05:21:38.033Z,58.03
2023-03-02T05:24:08.936Z,56.67
2023-03-02T05:26:37.922Z,57.80
2023-03-02T05:29:06.873Z,55.90
2023-03-02T05:31:38.211Z,51.73
2023-03-02T05:34:08.680Z,53.37
2023-03-02T05:36:39.291Z,58.00
2023-03-02T05:39:09.100Z,55.07
2023-03-02T05:41:38.495Z,58.57
2023-03-02T05:44:09.811Z,54.57
2023-03-02T05:46:38.428Z,52.83
2023-03-02T05:49:07.107Z,52.87
2023-03-02T05:51:35.614Z,50.35
2023-03-02T05:54:05.799Z,78.27
2023-03-02T05:56:34.642Z,52.40
2023-03-02T05:59:03.437Z,48.97
2023-03-02T06:01:32.375Z,53.43
2023-03-02T06:04:01.133Z,50.37
2023-03-02T06:06:30.526Z,59.63
2023-03-02T06:09:00.979Z,49.97
2023-03-02T06:11:31.157Z,49.33
2023-03-02T06:13:59.737Z,53.42
2023-03-02T06:16:28.310Z,48.80
2023-03-02T06:18:56.846Z,46.83
2023-03-02T06:21:25.436Z,48.87
2023-03-02T06:23:53.998Z,55.97
2023-03-02T06:26:22.848Z,52.30
2023-03-02T06:28:53.984Z,49.63
2023-03-02T06:31:23.265Z,50.07
2023-03-02T06:33:52.195Z,52.53
2023-03-02T06:36:20.979Z,51.97
2023-03-02T06:38:49.625Z,54.20
2023-03-02T06:41:18.497Z,57.33
2023-03-02T06:43:47.074Z,58.73
2023-03-02T06:46:17.106Z,57.97
2023-03-02T06:48:45.703Z,54.47
2023-03-02T06:51:14.250Z,95.23
2023-03-02T06:53:42.772Z,76.30
2023-03-02T06:56:11.838Z,58.17
2023-03-02T06:58:40.405Z,59.03
2023-03-02T07:01:09.179Z,58.93
2023-03-02T07:03:39.261Z,52.43
2023-03-02T07:06:09.045Z,79.37
2023-03-02T07:08:37.549Z,65.40
2023-03-02T07:11:11.113Z,57.50
2023-03-02T07:13:40.177Z,61.67
2023-03-02T07:16:10.302Z,60.47
2023-03-02T07:18:40.813Z,62.13
2023-03-02T07:21:09.427Z,60.70
2023-03-02T07:23:38.003Z,61.87
2023-03-02T07:26:08.725Z,56.90
2023-03-02T07:28:39.699Z,53.70
2023-03-02T07:31:09.196Z,56.07
2023-03-02T07:33:40.227Z,59.20
2023-03-02T07:36:10.286Z,61.90
2023-03-02T07:38:40.021Z,70.57
2023-03-02T07:41:09.345Z,64.87
2023-03-02T07:43:38.285Z,66.87
2023-03-02T07:46:07.257Z,60.97
2023-03-02T07:48:36.076Z,62.97
2023-03-02T07:51:07.720Z,100.20
2023-03-02T07:53:36.405Z,91.73
2023-03-02T07:56:08.554Z,97.13
2023-03-02T07:58:37.717Z,69.53
2023-03-02T08:01:06.968Z,70.07
2023-03-02T08:03:35.850Z,73.27
2023-03-02T08:06:09.147Z,86.60
2023-03-02T08:08:38.488Z,77.43
2023-03-02T08:11:08.048Z,71.83
2023-03-02T08:13:37.041Z,74.60
2023-03-02T08:16:07.701Z,64.33
2023-03-02T08:18:37.032Z,63.40
2023-03-02T08:21:06.364Z,59.60
2023-03-02T08:23:36.280Z,58.57
2023-03-02T08:26:05.093Z,59.37
2023-03-02T08:28:33.698Z,56.63
2023-03-02T08:31:03.165Z,51.57
2023-03-02T08:33:32.295Z,52.77
2023-03-02T08:36:02.980Z,52.37
2023-03-02T08:38:32.358Z,42.63
2023-03-02T08:41:05.640Z,43.67
2023-03-02T08:43:34.527Z,39.87
2023-03-02T08:46:03.720Z,38.87
2023-03-02T08:48:32.471Z,37.67
2023-03-02T08:51:03.818Z,39.40
2023-03-02T08:53:34.065Z,39.90
2023-03-02T08:56:04.442Z,42.83
2023-03-02T08:58:32.989Z,41.23
2023-03-02T09:01:01.660Z,37.43
2023-03-02T09:03:30.182Z,38.60
2023-03-02T09:05:59.153Z,38.73
2023-03-02T09:08:27.682Z,40.93
2023-03-02T09:10:56.208Z,44.13
2023-03-02T09:13:26.247Z,40.67
2023-03-02T09:15:54.801Z,42.60
2023-03-02T09:18:23.499Z,32.53
2023-03-02T09:20:52.739Z,31.00
2023-03-02T09:23:21.784Z,32.03
2023-03-02T09:25:51.217Z,34.03
2023-03-02T09:28:21.819Z,34.47
2023-03-02T09:30:53.240Z,25.53
2023-03-02T09:33:22.679Z,22.17
2023-03-02T09:35:51.744Z,24.37
2023-03-02T09:38:21.329Z,21.45
2023-03-02T09:41:07.301Z,19.33
2023-03-02T09:43:45.239Z,22.40
2023-03-02T09:46:22.999Z,22.27
2023-03-02T09:49:07.690Z,20.60
2023-03-02T09:51:43.284Z,22.10
2023-03-02T09:54:14.080Z,23.93
2023-03-02T09:56:46.448Z,22.67
2023-03-02T09:59:25.723Z,23.07
2023-03-02T10:02:01.588Z,31.17
2023-03-02T10:04:34.303Z,27.83
2023-03-02T10:07:14.001Z,31.30
2023-03-02T10:09:42.988Z,38.37
2023-03-02T10:12:38.895Z,36.80
2023-03-02T10:15:14.237Z,42.97
2023-03-02T10:17:58.601Z,31.00
2023-03-02T10:20:34.647Z,29.47
2023-03-02T10:23:16.806Z,30.80
2023-03-02T10:25:49.841Z,29.40
2023-03-02T10:28:21.892Z,27.50
2023-03-02T10:30:57.800Z,27.95
2023-03-02T10:33:29.206Z,27.80
2023-03-02T10:35:57.842Z,23.83
2023-03-02T10:38:27.928Z,25.07
2023-03-02T10:41:12.114Z,33.80
2023-03-02T10:43:46.983Z,21.25
2023-03-02T10:46:16.670Z,24.37
2023-03-02T10:48:58.377Z,26.95
2023-03-02T10:51:29.322Z,28.00
2023-03-02T10:54:08.753Z,26.47
2023-03-02T10:56:37.686Z,28.27
2023-03-02T10:59:29.766Z,26.20
2023-03-02T11:02:02.810Z,28.73
2023-03-02T11:04:33.385Z,28.70
2023-03-02T11:07:12.428Z,23.73
2023-03-02T11:09:41.382Z,25.53
2023-03-02T11:12:16.105Z,29.03
2023-03-02T11:14:44.831Z,21.38
2023-03-02T11:17:33.384Z,28.17
2023-03-02T11:20:07.556Z,26.10
2023-03-02T11:22:41.289Z,25.83
2023-03-02T11:25:17.788Z,22.37
2023-03-02T11:27:48.731Z,24.10
2023-03-02T11:30:20.492Z,22.97
2023-03-02T11:32:55.359Z,27.27
2023-03-02T11:35:32.689Z,29.43
2023-03-02T11:38:12.311Z,37.57
2023-03-02T11:40:48.387Z,27.30
2023-03-02T11:43:17.116Z,44.70
2023-03-02T11:45:47.946Z,45.93
2023-03-02T11:48:24.203Z,40.57
2023-03-02T11:50:59.398Z,30.83
2023-03-02T11:53:33.492Z,22.80
2023-03-02T11:56:02.196Z,25.33
2023-03-02T11:58:33.056Z,24.23
2023-03-02T12:01:08.878Z,23.20
2023-03-02T12:03:45.885Z,29.67
2023-03-02T12:06:42.101Z,28.30
2023-03-02T12:09:39.099Z,42.53
2023-03-02T12:12:58.221Z,50.00
2023-03-02T12:15:51.518Z,58.97
2023-03-02T12:18:47.086Z,50.77
2023-03-02T12:21:23.657Z,57.00
2023-03-02T12:24:06.454Z,38.57
2023-03-02T12:26:37.830Z,38.33
2023-03-02T12:29:22.859Z,30.50
2023-03-02T12:31:54.174Z,28.43
2023-03-02T12:34:44.350Z,25.10
2023-03-02T12:37:19.997Z,22.63
2023-03-02T12:40:25.254Z,20.63
2023-03-02T12:43:30.038Z,20.93
2023-03-02T12:46:37.554Z,24.70
2023-03-02T12:49:28.552Z,24.57
2023-03-02T12:51:59.099Z,21.83
2023-03-02T12:54:29.570Z,18.37
2023-03-02T12:57:09.089Z,16.73
2023-03-02T12:59:38.233Z,17.03
2023-03-02T13:02:25.876Z,16.07
2023-03-02T13:04:56.718Z,17.10
2023-03-02T13:07:28.877Z,21.13
2023-03-02T13:10:00.084Z,15.23
2023-03-02T13:12:32.474Z,20.30
2023-03-02T13:15:01.597Z,18.87
2023-03-02T13:17:31.433Z,20.37
2023-03-02T13:20:01.938Z,19.57
2023-03-02T13:22:31.272Z,20.40
2023-03-02T13:25:02.400Z,17.47
2023-03-02T13:27:34.113Z,19.07
2023-03-02T13:30:13.648Z,21.60
2023-03-02T13:32:43.598Z,23.10
2023-03-02T13:35:19.733Z,21.50
2023-03-02T13:37:48.287Z,20.07
2023-03-02T13:40:35.332Z,18.37
2023-03-02T13:43:08.920Z,25.17
2023-03-02T13:45:38.752Z,30.40
2023-03-02T13:48:16.080Z,24.50
2023-03-02T13:50:54.462Z,26.63
2023-03-02T13:53:24.480Z,46.77
2023-03-02T13:55:54.632Z,34.63
2023-03-02T13:58:25.822Z,44.37
2023-03-02T14:00:54.914Z,46.43
2023-03-02T14:03:26.998Z,46.60
2023-03-02T14:05:56.913Z,62.67
2023-03-02T14:08:25.670Z,40.00
2023-03-02T14:10:57.414Z,35.57
2023-03-02T14:13:31.793Z,30.70
2023-03-02T14:16:00.522Z,74.70
2023-03-02T14:18:34.548Z,55.80
2023-03-02T14:21:03.214Z,42.57
2023-03-02T14:23:31.995Z,47.00
2023-03-02T14:26:00.656Z,36.17
2023-03-02T14:28:35.809Z,33.87
2023-03-02T14:31:04.565Z,28.20
2023-03-02T14:33:33.149Z,23.10
2023-03-02T14:36:01.771Z,21.60
2023-03-02T14:38:31.298Z,31.60
2023-03-02T14:41:00.048Z,22.33
2023-03-02T14:43:30.845Z,26.03
2023-03-02T14:46:00.872Z,23.50
2023-03-02T14:48:29.590Z,26.47
2023-03-02T14:51:01.046Z,19.60
2023-03-02T14:53:34.495Z,24.07
2023-03-02T14:56:03.495Z,23.20
2023-03-02T14:58:34.578Z,24.00
2023-03-02T15:01:04.846Z,23.73
2023-03-02T15:03:33.639Z,31.50
2023-03-02T15:06:02.465Z,28.27
2023-03-02T15:08:31.428Z,22.10
2023-03-02T15:11:00.083Z,24.57
2023-03-02T15:13:28.649Z,49.07
2023-03-02T15:15:57.541Z,38.53
2023-03-02T15:18:27.565Z,43.00
2023-03-02T15:20:56.183Z,44.97
2023-03-02T15:23:24.841Z,43.80
2023-03-02T15:25:53.730Z,37.20
2023-03-02T15:28:22.281Z,37.43
2023-03-02T15:30:50.829Z,38.23
2023-03-02T15:33:19.493Z,37.27
2023-03-02T15:35:55.287Z,44.20
2023-03-02T15:38:25.075Z,54.57
2023-03-02T15:40:54.560Z,53.77
2023-03-02T15:43:24.472Z,66.20
2023-03-02T15:45:52.999Z,85.60
2023-03-02T15:48:21.549Z,71.60
2023-03-02T15:50:59.622Z,65.53
2023-03-02T15:53:29.052Z,63.60
2023-03-02T15:55:57.859Z,60.87
2023-03-02T15:58:26.569Z,57.53
2023-03-02T16:00:57.056Z,58.90
2023-03-02T16:03:26.075Z,57.40
2023-03-02T16:05:59.521Z,60.27
2023-03-02T16:08:32.845Z,59.30
2023-03-02T16:11:03.053Z,56.17
2023-03-02T16:13:32.164Z,71.67
2023-03-02T16:16:03.373Z,82.57
2023-03-02T16:18:31.980Z,85.60
2023-03-02T16:21:02.607Z,66.50
2023-03-02T16:23:32.651Z,61.37
2023-03-02T16:26:09.002Z,67.40
2023-03-02T16:28:37.939Z,84.27
2023-03-02T16:31:07.555Z,131.87
2023-03-02T16:33:36.462Z,93.20
2023-03-02T16:36:05.383Z,83.37
2023-03-02T16:38:37.092Z,64.93
2023-03-02T16:41:06.362Z,63.63
2023-03-02T16:43:35.181Z,64.27
2023-03-02T16:46:04.070Z,51.17
2023-03-02T16:48:32.723Z,50.73
2023-03-02T16:51:03.496Z,62.67
2023-03-02T16:53:32.142Z,60.10
2023-03-02T16:56:02.340Z,64.07
2023-03-02T16:58:31.104Z,64.63
2023-03-02T17:00:59.925Z,74.80
2023-03-02T17:03:28.676Z,72.83
2023-03-02T17:05:57.298Z,76.90
2023-03-02T17:08:26.427Z,78.70
2023-03-02T17:10:55.187Z,77.83
2023-03-02T17:13:25.458Z,75.90
2023-03-02T17:15:54.172Z,80.13
2023-03-02T17:18:22.811Z,78.83
2023-03-02T17:20:53.348Z,81.93
2023-03-02T17:23:22.402Z,72.60
2023-03-02T17:25:51.248Z,83.17
2023-03-02T17:28:19.818Z,76.77
2023-03-02T17:30:49.808Z,78.07
2023-03-02T17:33:18.564Z,93.80
2023-03-02T17:35:47.627Z,87.37
2023-03-02T17:38:17.254Z,89.00
2023-03-02T17:40:46.055Z,80.33
2023-03-02T17:43:14.960Z,84.87
2023-03-02T17:45:43.694Z,99.03
2023-03-02T17:48:13.837Z,101.57
2023-03-02T17:50:42.583Z,95.53
2023-03-02T17:53:11.263Z,109.17
2023-03-02T17:55:39.867Z,103.23
2023-03-02T17:58:08.737Z,105.93
2023-03-02T18:00:42.210Z,103.20
2023-03-02T18:03:12.415Z,105.37
2023-03-02T18:05:41.092Z,101.87
2023-03-02T18:08:10.258Z,100.90
2023-03-02T18:10:50.657Z,99.87
2023-03-02T18:13:20.695Z,108.60
2023-03-02T18:15:49.816Z,106.80
2023-03-02T18:18:19.862Z,99.10
2023-03-02T18:20:48.623Z,101.77
2023-03-02T18:23:17.416Z,98.20
2023-03-02T18:25:46.639Z,100.63
2023-03-02T18:28:15.826Z,101.03
2023-03-02T18:30:44.921Z,110.37
2023-03-02T18:33:13.725Z,112.23
2023-03-02T18:35:44.445Z,110.77
2023-03-02T18:38:13.375Z,114.60
2023-03-02T18:40:42.807Z,100.07
2023-03-02T18:43:11.623Z,112.43
2023-03-02T18:45:41.786Z,102.90
2023-03-02T18:48:10.496Z,108.90
2023-03-02T18:50:40.033Z,111.70
2023-03-02T18:53:12.811Z,119.07
2023-03-02T18:55:41.794Z,134.70
2023-03-02T18:58:13.965Z,175.77
2023-03-02T19:00:43.316Z,197.00
2023-03-02T19:03:12.355Z,159.37
2023-03-02T19:05:41.399Z,162.27
2023-03-02T19:08:11.963Z,166.33
2023-03-02T19:10:42.553Z,170.43
2023-03-02T19:13:12.031Z,148.13
2023-03-02T19:15:41.031Z,141.83
2023-03-02T19:18:09.963Z,150.40
2023-03-02T19:20:38.508Z,131.03
2023-03-02T19:23:07.089Z,139.50
2023-03-02T19:25:37.516Z,150.77
2023-03-02T19:28:06.249Z,144.47
2023-03-02T19:30:37.080Z,131.47
2023-03-02T19:33:07.585Z,127.60
2023-03-02T19:35:37.915Z,137.03
2023-03-02T19:38:07.302Z,142.20
2023-03-02T19:40:45.356Z,144.70
2023-03-02T19:43:13.927Z,155.27
2023-03-02T19:45:42.643Z,146.70
2023-03-02T19:48:13.907Z,158.33
2023-03-02T19:50:43.538Z,154.57
2023-03-02T19:53:12.157Z,169.40
2023-03-02T19:55:43.247Z,170.97
2023-03-02T19:58:17.385Z,167.77
2023-03-02T20:00:47.557Z,162.00
2023-03-02T20:03:16.374Z,167.77
2023-03-02T20:05:45.001Z,155.57
2023-03-02T20:08:13.540Z,153.20
2023-03-02T20:10:45.411Z,151.30
2023-03-02T20:13:14.533Z,154.87
2023-03-02T20:15:45.716Z,155.57
2023-03-02T20:18:16.635Z,155.13
2023-03-02T20:20:45.912Z,160.43
2023-03-02T20:23:15.004Z,156.60
2023-03-02T20:25:47.934Z,171.10
2023-03-02T20:28:19.288Z,175.40
2023-03-02T20:30:50.353Z,193.93
2023-03-02T20:33:20.374Z,181.37
2023-03-02T20:35:50.099Z,172.97
2023-03-02T20:38:24.357Z,174.17
2023-03-02T20:40:54.479Z,176.13
2023-03-02T20:43:23.255Z,160.53
2023-03-02T20:45:52.252Z,168.30
2023-03-02T20:48:22.477Z,174.30
2023-03-02T20:50:51.487Z,184.93
2023-03-02T20:53:20.857Z,187.53
2023-03-02T20:55:49.499Z,177.53
2023-03-02T20:58:19.644Z,192.17
2023-03-02T21:00:49.006Z,195.10
2023-03-02T21:03:17.780Z,193.03
2023-03-02T21:05:46.342Z,183.67
2023-03-02T21:08:15.555Z,189.47
2023-03-02T21:10:45.261Z,186.73
2023-03-02T21:13:14.030Z,195.37
2023-03-02T21:15:44.262Z,183.80
2023-03-02T21:18:13.019Z,180.20
2023-03-02T21:20:41.730Z,169.03
2023-03-02T21:23:11.260Z,175.07
2023-03-02T21:25:42.212Z,165.60
2023-03-02T21:28:11.141Z,173.73
2023-03-02T21:30:39.709Z,174.07
2023-03-02T21:33:10.000Z,171.67
2023-03-02T21:35:41.636Z,158.13
2023-03-02T21:38:10.286Z,157.57
2023-03-02T21:40:46.048Z,166.03
2023-03-02T21:43:15.462Z,155.53
2023-03-02T21:45:45.643Z,157.73
2023-03-02T21:48:16.554Z,160.67
2023-03-02T21:50:45.619Z,167.00
2023-03-02T21:53:14.663Z,162.80
2023-03-02T21:55:45.862Z,159.13
2023-03-02T21:58:14.875Z,159.23
2023-03-02T22:00:43.592Z,154.80
2023-03-02T22:03:12.820Z,148.67
2023-03-02T22:05:42.912Z,154.67
2023-03-02T22:08:15.024Z,159.33
2023-03-02T22:10:45.443Z,153.03
2023-03-02T22:13:21.264Z,161.37
2023-03-02T22:15:51.451Z,166.23
2023-03-02T22:18:25.546Z,166.00
2023-03-02T22:20:55.771Z,159.07
2023-03-02T22:23:26.475Z,156.60
2023-03-02T22:25:57.687Z,162.37
2023-03-02T22:28:29.692Z,143.93
2023-03-02T22:31:01.478Z,145.47
2023-03-02T22:33:30.840Z,150.60
2023-03-02T22:36:05.862Z,144.00
2023-03-02T22:38:34.781Z,142.87
2023-03-02T22:41:04.683Z,142.07
2023-03-02T22:43:34.431Z,131.23
2023-03-02T22:46:15.663Z,124.67
2023-03-02T22:48:46.315Z,128.73
2023-03-02T22:51:18.718Z,118.00
2023-03-02T22:53:50.550Z,117.90
2023-03-02T22:56:30.621Z,122.80
2023-03-02T22:59:04.196Z,126.33
2023-03-02T23:01:40.884Z,111.30
2023-03-02T23:04:18.529Z,121.63
2023-03-02T23:06:50.115Z,133.93
2023-03-02T23:09:21.255Z,145.00
2023-03-02T23:11:51.071Z,143.97
2023-03-02T23:14:24.363Z,140.77
2023-03-02T23:16:56.063Z,134.53
2023-03-02T23:19:25.292Z,137.77
2023-03-02T23:21:55.693Z,127.97
2023-03-02T23:24:24.371Z,125.80
2023-03-02T23:26:54.579Z,122.90
2023-03-02T23:29:23.451Z,125.27
2023-03-02T23:31:52.471Z,112.90
2023-03-02T23:34:21.822Z,116.43
2023-03-02T23:36:50.507Z,114.67
2023-03-02T23:39:20.678Z,122.47
2023-03-02T23:41:49.555Z,121.83
2023-03-02T23:44:19.794Z,128.63
2023-03-02T23:46:48.722Z,120.70
2023-03-02T23:49:17.482Z,125.87
2023-03-02T23:51:46.113Z,122.63
2023-03-02T23:54:14.661Z,135.37
2023-03-02T23:56:44.745Z,116.83
2023-03-02T23:59:13.422Z,121.20
